Huvudsida
METAR-TAF:

METAR-TAF

Flygplatser :

Palma de Mallorcas flygplats

Palma de Mallorca, Spanien

latitud: 39-33N, longitud: 002-44E, höjd: 4 m

Aktuellt väderrapport

Denna rapport gjordes för 30 minuter sedan, klockan 13:00 UTC
Vind 7 kt från väst, varierande mellan sydväst och väst/nordväst
Temperatur 21°C
Fuktighet 73%
Tryck 1009 hPa
Sikt 10 km eller mer
Få moln på en höjd av 1800 ft
Spridda moln på en höjd av 3500 ft
Brutna moln på en höjd av 6500 ft

METAR: LEPA 151300Z 26007KT 230V290 9999 FEW018 SCT035 BKN065 21/16 Q1009 NOSIG

Tid: 15:30 (13:30 UTC)

Väderprognos

Denna rapport gjordes för 2 timmar och 30 minuter sedan, klockan 11:00 UTC
Prognos gäller från 15 kl. 12 UTC till 16 kl. 12 UTC
Vind 10 kt från sydväst
Sikt 10 km eller mer
Få moln på en höjd av 2000 ft
Blir
från 15 kl. 16 UTC till 15 kl. 18 UTC
Vind 3 kt varierande vindriktning

TAF: LEPA 151100Z 1512/1612 23010KT 9999 FEW020 TX23/1512Z TN13/1606Z BECMG 1516/1518 VRB03KT

Aktuella väderrapporter och prognoser från 4000 flygplatser (METAR- och TAF-rapporter).

De tillgängliga stationerna syns som gula och röda prickar på kartan.

För musen över prickarna för att se namnen på stationerna.

Klicka sedan för att få väderrapporter och prognoser.

För att ändra kartan: Klicka på de gröna knapparna med ett svart kors på för att zooma in; den gröna knappen med ett streck på för att zooma ut; eller på de gröna pilarna för angränsande kartor.


METAR-TAF: